sensor_id;sensor_type;location;lat;lon;timestamp;temperature;humidity
43049;DHT22;28673;44.412;11.918;2023-05-20T00:00:26;15.70;99.90
43049;DHT22;28673;44.412;11.918;2023-05-20T00:02:52;15.70;99.90
43049;DHT22;28673;44.412;11.918;2023-05-20T00:05:18;15.70;99.90
43049;DHT22;28673;44.412;11.918;2023-05-20T00:07:44;15.70;99.90
43049;DHT22;28673;44.412;11.918;2023-05-20T00:10:10;15.70;99.90
43049;DHT22;28673;44.412;11.918;2023-05-20T00:12:37;15.70;99.90
43049;DHT22;28673;44.412;11.918;2023-05-20T00:15:04;15.70;99.90
43049;DHT22;28673;44.412;11.918;2023-05-20T00:17:30;15.70;99.90
43049;DHT22;28673;44.412;11.918;2023-05-20T00:19:55;15.70;99.90
43049;DHT22;28673;44.412;11.918;2023-05-20T00:22:21;15.70;99.90
43049;DHT22;28673;44.412;11.918;2023-05-20T00:24:47;15.70;99.90
43049;DHT22;28673;44.412;11.918;2023-05-20T00:27:13;15.70;99.90
43049;DHT22;28673;44.412;11.918;2023-05-20T00:29:39;15.70;99.90
43049;DHT22;28673;44.412;11.918;2023-05-20T00:32:05;15.70;99.90
43049;DHT22;28673;44.412;11.918;2023-05-20T00:34:31;15.60;99.90
43049;DHT22;28673;44.412;11.918;2023-05-20T00:36:57;15.60;99.90
43049;DHT22;28673;44.412;11.918;2023-05-20T00:39:23;15.60;99.90
43049;DHT22;28673;44.412;11.918;2023-05-20T00:41:49;15.60;99.90
43049;DHT22;28673;44.412;11.918;2023-05-20T00:44:15;15.70;99.90
43049;DHT22;28673;44.412;11.918;2023-05-20T00:46:44;15.60;99.90
43049;DHT22;28673;44.412;11.918;2023-05-20T00:49:10;15.60;99.90
43049;DHT22;28673;44.412;11.918;2023-05-20T00:51:36;15.60;99.90
43049;DHT22;28673;44.412;11.918;2023-05-20T00:54:02;15.60;99.90
43049;DHT22;28673;44.412;11.918;2023-05-20T00:56:28;15.60;99.90
43049;DHT22;28673;44.412;11.918;2023-05-20T00:58:55;15.60;99.90
43049;DHT22;28673;44.412;11.918;2023-05-20T01:01:22;15.50;99.90
43049;DHT22;28673;44.412;11.918;2023-05-20T01:03:47;15.50;99.90
43049;DHT22;28673;44.412;11.918;2023-05-20T01:06:14;15.50;99.90
43049;DHT22;28673;44.412;11.918;2023-05-20T01:08:40;15.50;99.90
43049;DHT22;28673;44.412;11.918;2023-05-20T01:11:10;15.50;99.90
43049;DHT22;28673;44.412;11.918;2023-05-20T01:13:54;15.50;99.90
43049;DHT22;28673;44.412;11.918;2023-05-20T01:16:23;15.50;99.90
43049;DHT22;28673;44.412;11.918;2023-05-20T01:18:50;15.50;99.90
43049;DHT22;28673;44.412;11.918;2023-05-20T01:21:19;15.50;99.90
43049;DHT22;28673;44.412;11.918;2023-05-20T01:23:47;15.50;99.90
43049;DHT22;28673;44.412;11.918;2023-05-20T01:26:13;15.50;99.90
43049;DHT22;28673;44.412;11.918;2023-05-20T01:28:40;15.40;99.90
43049;DHT22;28673;44.412;11.918;2023-05-20T01:31:17;15.40;99.90
43049;DHT22;28673;44.412;11.918;2023-05-20T01:33:45;15.40;99.90
43049;DHT22;28673;44.412;11.918;2023-05-20T01:36:15;15.40;99.90
43049;DHT22;28673;44.412;11.918;2023-05-20T01:38:44;15.40;99.90
43049;DHT22;28673;44.412;11.918;2023-05-20T01:41:11;15.30;99.90
43049;DHT22;28673;44.412;11.918;2023-05-20T01:43:38;15.30;99.90
43049;DHT22;28673;44.412;11.918;2023-05-20T01:46:05;15.30;99.90
43049;DHT22;28673;44.412;11.918;2023-05-20T01:48:31;15.30;99.90
43049;DHT22;28673;44.412;11.918;2023-05-20T01:50:57;15.30;99.90
43049;DHT22;28673;44.412;11.918;2023-05-20T01:53:23;15.30;99.90
43049;DHT22;28673;44.412;11.918;2023-05-20T01:55:49;15.30;99.90
43049;DHT22;28673;44.412;11.918;2023-05-20T01:58:14;15.30;99.90
43049;DHT22;28673;44.412;11.918;2023-05-20T02:00:40;15.30;99.90
43049;DHT22;28673;44.412;11.918;2023-05-20T02:03:06;15.20;99.90
43049;DHT22;28673;44.412;11.918;2023-05-20T02:05:34;15.30;99.90
43049;DHT22;28673;44.412;11.918;2023-05-20T02:08:03;15.30;99.90
43049;DHT22;28673;44.412;11.918;2023-05-20T02:10:29;15.20;99.90
43049;DHT22;28673;44.412;11.918;2023-05-20T02:12:55;15.20;99.90
43049;DHT22;28673;44.412;11.918;2023-05-20T02:15:22;15.20;99.90
43049;DHT22;28673;44.412;11.918;2023-05-20T02:17:48;15.20;99.90
43049;DHT22;28673;44.412;11.918;2023-05-20T02:20:14;15.20;99.90
43049;DHT22;28673;44.412;11.918;2023-05-20T02:22:40;15.20;99.90
43049;DHT22;28673;44.412;11.918;2023-05-20T02:25:07;15.20;99.90
43049;DHT22;28673;44.412;11.918;2023-05-20T02:27:38;15.20;99.90
43049;DHT22;28673;44.412;11.918;2023-05-20T02:30:06;15.20;99.90
43049;DHT22;28673;44.412;11.918;2023-05-20T02:32:33;15.20;99.90
43049;DHT22;28673;44.412;11.918;2023-05-20T02:34:59;15.20;99.90
43049;DHT22;28673;44.412;11.918;2023-05-20T02:37:27;15.20;99.90
43049;DHT22;28673;44.412;11.918;2023-05-20T02:39:53;15.20;99.90
43049;DHT22;28673;44.412;11.918;2023-05-20T02:42:21;15.10;99.90
43049;DHT22;28673;44.412;11.918;2023-05-20T02:44:50;15.20;99.90
43049;DHT22;28673;44.412;11.918;2023-05-20T02:47:17;15.20;99.90
43049;DHT22;28673;44.412;11.918;2023-05-20T02:49:43;15.20;99.90
43049;DHT22;28673;44.412;11.918;2023-05-20T02:52:09;15.20;99.90
43049;DHT22;28673;44.412;11.918;2023-05-20T02:54:35;15.20;99.90
43049;DHT22;28673;44.412;11.918;2023-05-20T02:57:01;15.20;99.90
43049;DHT22;28673;44.412;11.918;2023-05-20T02:59:27;15.20;99.90
43049;DHT22;28673;44.412;11.918;2023-05-20T03:01:56;15.20;99.90
43049;DHT22;28673;44.412;11.918;2023-05-20T03:04:26;15.20;99.90
43049;DHT22;28673;44.412;11.918;2023-05-20T03:06:53;15.30;99.90
43049;DHT22;28673;44.412;11.918;2023-05-20T03:09:25;15.30;99.90
43049;DHT22;28673;44.412;11.918;2023-05-20T03:11:51;15.20;99.90
43049;DHT22;28673;44.412;11.918;2023-05-20T03:14:17;15.20;99.90
43049;DHT22;28673;44.412;11.918;2023-05-20T03:16:43;15.20;99.90
43049;DHT22;28673;44.412;11.918;2023-05-20T03:19:13;15.20;99.90
43049;DHT22;28673;44.412;11.918;2023-05-20T03:21:42;15.20;99.90
43049;DHT22;28673;44.412;11.918;2023-05-20T03:24:08;15.20;99.90
43049;DHT22;28673;44.412;11.918;2023-05-20T03:26:44;15.20;99.90
43049;DHT22;28673;44.412;11.918;2023-05-20T03:29:15;15.20;99.90
43049;DHT22;28673;44.412;11.918;2023-05-20T03:31:48;15.20;99.90
43049;DHT22;28673;44.412;11.918;2023-05-20T03:34:14;15.20;99.90
43049;DHT22;28673;44.412;11.918;2023-05-20T03:36:46;15.20;99.90
43049;DHT22;28673;44.412;11.918;2023-05-20T03:39:13;15.20;99.90
43049;DHT22;28673;44.412;11.918;2023-05-20T03:41:43;15.20;99.90
43049;DHT22;28673;44.412;11.918;2023-05-20T03:44:12;15.20;99.90
43049;DHT22;28673;44.412;11.918;2023-05-20T03:46:40;15.20;99.90
43049;DHT22;28673;44.412;11.918;2023-05-20T03:49:08;15.20;99.90
43049;DHT22;28673;44.412;11.918;2023-05-20T03:51:43;15.20;99.90
43049;DHT22;28673;44.412;11.918;2023-05-20T03:54:12;15.20;99.90
43049;DHT22;28673;44.412;11.918;2023-05-20T03:56:39;15.20;99.90
43049;DHT22;28673;44.412;11.918;2023-05-20T03:59:05;15.20;99.90
43049;DHT22;28673;44.412;11.918;2023-05-20T04:01:32;15.20;99.90
43049;DHT22;28673;44.412;11.918;2023-05-20T04:04:01;15.20;99.90
43049;DHT22;28673;44.412;11.918;2023-05-20T04:06:33;15.20;99.90
43049;DHT22;28673;44.412;11.918;2023-05-20T04:09:04;15.20;99.90
43049;DHT22;28673;44.412;11.918;2023-05-20T04:11:33;15.20;99.90
43049;DHT22;28673;44.412;11.918;2023-05-20T04:14:02;15.20;99.90
43049;DHT22;28673;44.412;11.918;2023-05-20T04:16:28;15.20;99.90
43049;DHT22;28673;44.412;11.918;2023-05-20T04:18:55;15.20;99.90
43049;DHT22;28673;44.412;11.918;2023-05-20T04:21:21;15.20;99.90
43049;DHT22;28673;44.412;11.918;2023-05-20T04:23:55;15.20;99.90
43049;DHT22;28673;44.412;11.918;2023-05-20T04:26:21;15.20;99.90
43049;DHT22;28673;44.412;11.918;2023-05-20T04:28:53;15.20;99.90
43049;DHT22;28673;44.412;11.918;2023-05-20T04:31:20;15.20;99.90
43049;DHT22;28673;44.412;11.918;2023-05-20T04:33:56;15.20;99.90
43049;DHT22;28673;44.412;11.918;2023-05-20T04:36:26;15.20;99.90
43049;DHT22;28673;44.412;11.918;2023-05-20T04:39:02;15.20;99.90
43049;DHT22;28673;44.412;11.918;2023-05-20T04:41:30;15.20;99.90
43049;DHT22;28673;44.412;11.918;2023-05-20T04:43:59;15.20;99.90
43049;DHT22;28673;44.412;11.918;2023-05-20T04:46:28;15.20;99.90
43049;DHT22;28673;44.412;11.918;2023-05-20T04:49:02;15.30;99.90
43049;DHT22;28673;44.412;11.918;2023-05-20T04:51:36;15.30;99.90
43049;DHT22;28673;44.412;11.918;2023-05-20T04:54:10;15.30;99.90
43049;DHT22;28673;44.412;11.918;2023-05-20T04:56:49;15.30;99.90
43049;DHT22;28673;44.412;11.918;2023-05-20T05:01:59;15.30;99.90
43049;DHT22;28673;44.412;11.918;2023-05-20T05:04:32;15.30;99.90
43049;DHT22;28673;44.412;11.918;2023-05-20T05:07:07;15.20;99.90
43049;DHT22;28673;44.412;11.918;2023-05-20T05:09:34;15.20;99.90
43049;DHT22;28673;44.412;11.918;2023-05-20T05:12:10;15.30;99.90
43049;DHT22;28673;44.412;11.918;2023-05-20T05:14:44;15.30;99.90
43049;DHT22;28673;44.412;11.918;2023-05-20T05:17:10;15.30;99.90
43049;DHT22;28673;44.412;11.918;2023-05-20T05:19:36;15.30;99.90
43049;DHT22;28673;44.412;11.918;2023-05-20T05:22:03;15.30;99.90
43049;DHT22;28673;44.412;11.918;2023-05-20T05:24:29;15.30;99.90
43049;DHT22;28673;44.412;11.918;2023-05-20T05:26:55;15.40;99.90
43049;DHT22;28673;44.412;11.918;2023-05-20T05:29:21;15.40;99.90
43049;DHT22;28673;44.412;11.918;2023-05-20T05:31:50;15.40;99.90
43049;DHT22;28673;44.412;11.918;2023-05-20T05:34:16;15.50;99.90
43049;DHT22;28673;44.412;11.918;2023-05-20T05:36:46;15.40;99.90
43049;DHT22;28673;44.412;11.918;2023-05-20T05:39:13;15.50;99.90
43049;DHT22;28673;44.412;11.918;2023-05-20T05:41:40;15.50;99.90
43049;DHT22;28673;44.412;11.918;2023-05-20T05:44:06;15.50;99.90
43049;DHT22;28673;44.412;11.918;2023-05-20T05:46:33;15.50;99.90
43049;DHT22;28673;44.412;11.918;2023-05-20T05:48:59;15.50;99.90
43049;DHT22;28673;44.412;11.918;2023-05-20T05:51:26;15.60;99.90
43049;DHT22;28673;44.412;11.918;2023-05-20T05:53:54;15.60;99.90
43049;DHT22;28673;44.412;11.918;2023-05-20T05:56:20;15.60;99.90
43049;DHT22;28673;44.412;11.918;2023-05-20T05:58:47;15.60;99.90
43049;DHT22;28673;44.412;11.918;2023-05-20T06:01:13;15.70;99.90
43049;DHT22;28673;44.412;11.918;2023-05-20T06:03:39;15.70;99.90
43049;DHT22;28673;44.412;11.918;2023-05-20T06:06:06;15.70;99.90
43049;DHT22;28673;44.412;11.918;2023-05-20T06:08:33;15.80;99.90
43049;DHT22;28673;44.412;11.918;2023-05-20T06:10:59;15.80;99.90
43049;DHT22;28673;44.412;11.918;2023-05-20T06:13:25;15.70;99.90
43049;DHT22;28673;44.412;11.918;2023-05-20T06:15:51;15.80;99.90
43049;DHT22;28673;44.412;11.918;2023-05-20T06:18:18;15.80;99.90
43049;DHT22;28673;44.412;11.918;2023-05-20T06:20:45;15.80;99.90
43049;DHT22;28673;44.412;11.918;2023-05-20T06:23:11;15.80;99.90
43049;DHT22;28673;44.412;11.918;2023-05-20T06:25:49;15.80;99.90
43049;DHT22;28673;44.412;11.918;2023-05-20T06:28:15;15.80;99.90
43049;DHT22;28673;44.412;11.918;2023-05-20T06:30:41;15.90;99.90
43049;DHT22;28673;44.412;11.918;2023-05-20T06:33:07;15.90;99.90
43049;DHT22;28673;44.412;11.918;2023-05-20T06:35:34;15.90;99.90
43049;DHT22;28673;44.412;11.918;2023-05-20T06:38:01;15.90;99.90
43049;DHT22;28673;44.412;11.918;2023-05-20T06:40:27;15.90;99.90
43049;DHT22;28673;44.412;11.918;2023-05-20T06:42:54;15.90;99.90
43049;DHT22;28673;44.412;11.918;2023-05-20T06:45:40;15.90;99.90
43049;DHT22;28673;44.412;11.918;2023-05-20T06:48:41;16.00;99.90
43049;DHT22;28673;44.412;11.918;2023-05-20T06:51:07;16.00;99.90
43049;DHT22;28673;44.412;11.918;2023-05-20T06:53:37;16.00;99.90
43049;DHT22;28673;44.412;11.918;2023-05-20T06:56:03;16.00;99.90
43049;DHT22;28673;44.412;11.918;2023-05-20T06:58:31;16.10;99.90
43049;DHT22;28673;44.412;11.918;2023-05-20T07:00:57;16.10;99.90
43049;DHT22;28673;44.412;11.918;2023-05-20T07:03:24;16.10;99.90
43049;DHT22;28673;44.412;11.918;2023-05-20T07:05:50;16.10;99.90
43049;DHT22;28673;44.412;11.918;2023-05-20T07:08:18;16.10;99.90
43049;DHT22;28673;44.412;11.918;2023-05-20T07:10:44;16.20;99.90
43049;DHT22;28673;44.412;11.918;2023-05-20T07:13:13;16.20;99.90
43049;DHT22;28673;44.412;11.918;2023-05-20T07:15:40;16.20;99.90
43049;DHT22;28673;44.412;11.918;2023-05-20T07:18:06;16.30;99.90
43049;DHT22;28673;44.412;11.918;2023-05-20T07:20:32;16.30;99.90
43049;DHT22;28673;44.412;11.918;2023-05-20T07:23:03;16.40;99.90
43049;DHT22;28673;44.412;11.918;2023-05-20T07:25:36;16.40;99.90
43049;DHT22;28673;44.412;11.918;2023-05-20T07:28:02;16.50;99.90
43049;DHT22;28673;44.412;11.918;2023-05-20T07:30:28;16.50;99.90
43049;DHT22;28673;44.412;11.918;2023-05-20T07:33:10;16.50;99.90
43049;DHT22;28673;44.412;11.918;2023-05-20T07:35:36;16.60;99.90
43049;DHT22;28673;44.412;11.918;2023-05-20T07:38:02;16.60;99.90
43049;DHT22;28673;44.412;11.918;2023-05-20T07:40:28;16.70;99.90
43049;DHT22;28673;44.412;11.918;2023-05-20T07:42:57;16.70;99.90
43049;DHT22;28673;44.412;11.918;2023-05-20T07:45:24;16.80;99.90
43049;DHT22;28673;44.412;11.918;2023-05-20T07:47:50;16.80;99.90
43049;DHT22;28673;44.412;11.918;2023-05-20T07:50:16;16.90;99.90
43049;DHT22;28673;44.412;11.918;2023-05-20T07:52:42;17.00;99.90
43049;DHT22;28673;44.412;11.918;2023-05-20T07:55:12;17.10;99.90
43049;DHT22;28673;44.412;11.918;2023-05-20T07:57:38;17.10;99.90
43049;DHT22;28673;44.412;11.918;2023-05-20T08:00:05;17.20;99.90
43049;DHT22;28673;44.412;11.918;2023-05-20T08:02:31;17.20;99.90
43049;DHT22;28673;44.412;11.918;2023-05-20T08:04:58;17.30;99.90
43049;DHT22;28673;44.412;11.918;2023-05-20T08:07:24;17.30;99.90
43049;DHT22;28673;44.412;11.918;2023-05-20T08:09:52;17.30;99.90
43049;DHT22;28673;44.412;11.918;2023-05-20T08:12:19;17.40;99.90
43049;DHT22;28673;44.412;11.918;2023-05-20T08:14:46;17.50;99.90
43049;DHT22;28673;44.412;11.918;2023-05-20T08:17:12;17.50;99.90
43049;DHT22;28673;44.412;11.918;2023-05-20T08:19:38;17.60;99.90
43049;DHT22;28673;44.412;11.918;2023-05-20T08:22:05;17.70;99.90
43049;DHT22;28673;44.412;11.918;2023-05-20T08:24:31;17.80;99.90
43049;DHT22;28673;44.412;11.918;2023-05-20T08:26:59;17.90;99.90
43049;DHT22;28673;44.412;11.918;2023-05-20T08:29:26;18.00;99.90
43049;DHT22;28673;44.412;11.918;2023-05-20T08:31:52;18.10;99.90
43049;DHT22;28673;44.412;11.918;2023-05-20T08:34:19;18.20;99.90
43049;DHT22;28673;44.412;11.918;2023-05-20T08:36:45;18.20;99.90
43049;DHT22;28673;44.412;11.918;2023-05-20T08:39:11;18.30;99.90
43049;DHT22;28673;44.412;11.918;2023-05-20T08:41:38;18.40;99.90
43049;DHT22;28673;44.412;11.918;2023-05-20T08:44:05;18.30;99.90
43049;DHT22;28673;44.412;11.918;2023-05-20T08:46:35;18.40;99.90
43049;DHT22;28673;44.412;11.918;2023-05-20T08:49:01;18.40;99.90
43049;DHT22;28673;44.412;11.918;2023-05-20T08:51:28;18.30;99.90
43049;DHT22;28673;44.412;11.918;2023-05-20T08:53:58;18.30;99.90
43049;DHT22;28673;44.412;11.918;2023-05-20T08:56:27;18.30;99.90
43049;DHT22;28673;44.412;11.918;2023-05-20T08:58:53;18.30;99.90
43049;DHT22;28673;44.412;11.918;2023-05-20T09:01:26;18.20;99.90
43049;DHT22;28673;44.412;11.918;2023-05-20T09:03:52;18.20;99.90
43049;DHT22;28673;44.412;11.918;2023-05-20T09:06:18;18.20;99.90
43049;DHT22;28673;44.412;11.918;2023-05-20T09:08:50;18.20;99.90
43049;DHT22;28673;44.412;11.918;2023-05-20T09:11:17;18.10;99.90
43049;DHT22;28673;44.412;11.918;2023-05-20T09:13:43;18.10;99.90
43049;DHT22;28673;44.412;11.918;2023-05-20T09:16:10;18.00;99.90
43049;DHT22;28673;44.412;11.918;2023-05-20T09:18:39;18.00;99.90
43049;DHT22;28673;44.412;11.918;2023-05-20T09:21:05;18.00;99.90
43049;DHT22;28673;44.412;11.918;2023-05-20T09:23:37;18.10;99.90
43049;DHT22;28673;44.412;11.918;2023-05-20T09:26:03;18.10;99.90
43049;DHT22;28673;44.412;11.918;2023-05-20T09:28:29;18.10;99.90
43049;DHT22;28673;44.412;11.918;2023-05-20T09:30:58;18.10;99.90
43049;DHT22;28673;44.412;11.918;2023-05-20T09:33:31;18.10;99.90
43049;DHT22;28673;44.412;11.918;2023-05-20T09:36:05;18.20;99.90
43049;DHT22;28673;44.412;11.918;2023-05-20T09:38:35;18.20;99.90
43049;DHT22;28673;44.412;11.918;2023-05-20T09:41:09;18.20;99.90
43049;DHT22;28673;44.412;11.918;2023-05-20T09:43:40;18.30;99.90
43049;DHT22;28673;44.412;11.918;2023-05-20T09:46:06;18.40;99.90
43049;DHT22;28673;44.412;11.918;2023-05-20T09:48:34;18.40;99.90
43049;DHT22;28673;44.412;11.918;2023-05-20T09:51:04;18.40;99.90
43049;DHT22;28673;44.412;11.918;2023-05-20T09:53:31;18.50;99.90
43049;DHT22;28673;44.412;11.918;2023-05-20T09:55:57;18.50;99.90
43049;DHT22;28673;44.412;11.918;2023-05-20T09:58:24;18.60;99.90
43049;DHT22;28673;44.412;11.918;2023-05-20T10:00:51;18.70;99.90
43049;DHT22;28673;44.412;11.918;2023-05-20T10:03:21;18.70;99.90
43049;DHT22;28673;44.412;11.918;2023-05-20T10:06:18;18.80;99.90
43049;DHT22;28673;44.412;11.918;2023-05-20T10:15:17;18.80;99.90
43049;DHT22;28673;44.412;11.918;2023-05-20T10:20:48;18.70;99.90
43049;DHT22;28673;44.412;11.918;2023-05-20T10:23:27;18.70;99.90
43049;DHT22;28673;44.412;11.918;2023-05-20T10:25:56;18.70;99.90
43049;DHT22;28673;44.412;11.918;2023-05-20T10:28:31;18.80;99.90
43049;DHT22;28673;44.412;11.918;2023-05-20T10:30:58;18.80;99.90
43049;DHT22;28673;44.412;11.918;2023-05-20T10:33:25;18.80;99.90
43049;DHT22;28673;44.412;11.918;2023-05-20T10:35:58;18.90;99.90
43049;DHT22;28673;44.412;11.918;2023-05-20T10:38:25;18.90;99.90
43049;DHT22;28673;44.412;11.918;2023-05-20T10:40:51;18.90;99.90
43049;DHT22;28673;44.412;11.918;2023-05-20T10:43:36;18.90;99.90
43049;DHT22;28673;44.412;11.918;2023-05-20T10:46:01;19.00;99.90
43049;DHT22;28673;44.412;11.918;2023-05-20T10:48:28;19.00;99.90
43049;DHT22;28673;44.412;11.918;2023-05-20T10:51:00;19.10;99.90
43049;DHT22;28673;44.412;11.918;2023-05-20T10:53:38;19.00;99.90
43049;DHT22;28673;44.412;11.918;2023-05-20T10:56:05;19.00;99.90
43049;DHT22;28673;44.412;11.918;2023-05-20T10:58:38;19.00;99.90
43049;DHT22;28673;44.412;11.918;2023-05-20T11:01:04;19.00;99.90
43049;DHT22;28673;44.412;11.918;2023-05-20T11:03:30;19.00;99.90
43049;DHT22;28673;44.412;11.918;2023-05-20T11:05:57;19.00;99.90
43049;DHT22;28673;44.412;11.918;2023-05-20T11:08:28;19.00;99.90
43049;DHT22;28673;44.412;11.918;2023-05-20T11:10:56;19.10;99.90
43049;DHT22;28673;44.412;11.918;2023-05-20T11:13:22;19.10;99.90
43049;DHT22;28673;44.412;11.918;2023-05-20T11:15:48;19.20;99.90
43049;DHT22;28673;44.412;11.918;2023-05-20T11:18:14;19.20;99.90
43049;DHT22;28673;44.412;11.918;2023-05-20T11:20:40;19.20;99.90
43049;DHT22;28673;44.412;11.918;2023-05-20T11:23:12;19.20;99.90
43049;DHT22;28673;44.412;11.918;2023-05-20T11:25:38;19.30;99.90
43049;DHT22;28673;44.412;11.918;2023-05-20T11:28:29;19.30;99.90
43049;DHT22;28673;44.412;11.918;2023-05-20T11:30:54;19.20;99.90
43049;DHT22;28673;44.412;11.918;2023-05-20T11:33:28;19.20;99.90
43049;DHT22;28673;44.412;11.918;2023-05-20T11:35:56;19.20;99.90
43049;DHT22;28673;44.412;11.918;2023-05-20T11:38:23;19.10;99.90
43049;DHT22;28673;44.412;11.918;2023-05-20T11:40:53;19.10;99.90
43049;DHT22;28673;44.412;11.918;2023-05-20T11:43:20;19.00;99.90
43049;DHT22;28673;44.412;11.918;2023-05-20T11:45:51;19.00;99.90
43049;DHT22;28673;44.412;11.918;2023-05-20T11:48:18;19.00;99.90
43049;DHT22;28673;44.412;11.918;2023-05-20T11:50:45;19.00;99.90
43049;DHT22;28673;44.412;11.918;2023-05-20T11:53:19;18.90;99.90
43049;DHT22;28673;44.412;11.918;2023-05-20T11:56:00;18.90;99.90
43049;DHT22;28673;44.412;11.918;2023-05-20T11:58:29;18.90;99.90
43049;DHT22;28673;44.412;11.918;2023-05-20T12:00:55;18.80;99.90
43049;DHT22;28673;44.412;11.918;2023-05-20T12:03:21;18.90;99.90
43049;DHT22;28673;44.412;11.918;2023-05-20T12:05:48;18.90;99.90
43049;DHT22;28673;44.412;11.918;2023-05-20T12:08:15;18.90;99.90
43049;DHT22;28673;44.412;11.918;2023-05-20T12:10:41;18.80;99.90
43049;DHT22;28673;44.412;11.918;2023-05-20T12:13:12;18.90;99.90
43049;DHT22;28673;44.412;11.918;2023-05-20T12:15:41;18.90;99.90
43049;DHT22;28673;44.412;11.918;2023-05-20T12:18:07;18.90;99.90
43049;DHT22;28673;44.412;11.918;2023-05-20T12:20:33;18.90;99.90
43049;DHT22;28673;44.412;11.918;2023-05-20T12:22:59;19.00;99.90
43049;DHT22;28673;44.412;11.918;2023-05-20T12:25:26;19.00;99.90
43049;DHT22;28673;44.412;11.918;2023-05-20T12:27:52;19.00;99.90
43049;DHT22;28673;44.412;11.918;2023-05-20T12:30:19;19.00;99.90
43049;DHT22;28673;44.412;11.918;2023-05-20T12:32:46;19.10;99.90
43049;DHT22;28673;44.412;11.918;2023-05-20T12:35:13;19.10;99.90
43049;DHT22;28673;44.412;11.918;2023-05-20T12:37:42;19.10;99.90
43049;DHT22;28673;44.412;11.918;2023-05-20T12:40:09;19.10;99.90
43049;DHT22;28673;44.412;11.918;2023-05-20T12:42:40;19.10;99.90
43049;DHT22;28673;44.412;11.918;2023-05-20T12:45:07;19.10;99.90
43049;DHT22;28673;44.412;11.918;2023-05-20T12:47:34;19.10;99.90
43049;DHT22;28673;44.412;11.918;2023-05-20T12:50:00;19.00;99.90
43049;DHT22;28673;44.412;11.918;2023-05-20T12:52:27;19.00;99.90
43049;DHT22;28673;44.412;11.918;2023-05-20T12:54:54;19.00;99.90
43049;DHT22;28673;44.412;11.918;2023-05-20T12:57:22;19.00;99.90
43049;DHT22;28673;44.412;11.918;2023-05-20T12:59:48;19.00;99.90
43049;DHT22;28673;44.412;11.918;2023-05-20T13:02:14;19.00;99.90
43049;DHT22;28673;44.412;11.918;2023-05-20T13:04:40;19.00;99.90
43049;DHT22;28673;44.412;11.918;2023-05-20T13:07:06;19.00;99.90
43049;DHT22;28673;44.412;11.918;2023-05-20T13:09:32;19.00;99.90
43049;DHT22;28673;44.412;11.918;2023-05-20T13:11:59;19.00;99.90
43049;DHT22;28673;44.412;11.918;2023-05-20T13:14:26;19.00;99.90
43049;DHT22;28673;44.412;11.918;2023-05-20T13:16:52;19.00;99.90
43049;DHT22;28673;44.412;11.918;2023-05-20T13:19:23;19.00;99.90
43049;DHT22;28673;44.412;11.918;2023-05-20T13:21:50;19.00;99.90
43049;DHT22;28673;44.412;11.918;2023-05-20T13:24:17;19.00;99.90
43049;DHT22;28673;44.412;11.918;2023-05-20T13:26:43;19.10;99.90
43049;DHT22;28673;44.412;11.918;2023-05-20T13:29:10;19.00;99.90
43049;DHT22;28673;44.412;11.918;2023-05-20T13:31:37;19.00;99.90
43049;DHT22;28673;44.412;11.918;2023-05-20T13:34:03;19.00;99.90
43049;DHT22;28673;44.412;11.918;2023-05-20T13:36:29;19.00;99.90
43049;DHT22;28673;44.412;11.918;2023-05-20T13:38:55;19.10;99.90
43049;DHT22;28673;44.412;11.918;2023-05-20T13:41:23;19.10;99.90
43049;DHT22;28673;44.412;11.918;2023-05-20T13:43:49;19.10;99.90
43049;DHT22;28673;44.412;11.918;2023-05-20T13:46:15;19.10;99.90
43049;DHT22;28673;44.412;11.918;2023-05-20T13:48:42;19.10;99.90
43049;DHT22;28673;44.412;11.918;2023-05-20T13:51:08;19.10;99.90
43049;DHT22;28673;44.412;11.918;2023-05-20T13:53:34;19.10;99.90
43049;DHT22;28673;44.412;11.918;2023-05-20T13:55:59;19.00;99.90
43049;DHT22;28673;44.412;11.918;2023-05-20T13:58:28;19.00;99.90
43049;DHT22;28673;44.412;11.918;2023-05-20T14:00:54;19.00;99.90
43049;DHT22;28673;44.412;11.918;2023-05-20T14:03:20;19.00;99.90
43049;DHT22;28673;44.412;11.918;2023-05-20T14:05:46;19.00;99.90
43049;DHT22;28673;44.412;11.918;2023-05-20T14:08:15;19.00;99.90
43049;DHT22;28673;44.412;11.918;2023-05-20T14:10:41;19.00;99.90
43049;DHT22;28673;44.412;11.918;2023-05-20T14:13:07;19.10;99.90
43049;DHT22;28673;44.412;11.918;2023-05-20T14:15:35;19.20;99.90
43049;DHT22;28673;44.412;11.918;2023-05-20T14:18:01;19.20;99.90
43049;DHT22;28673;44.412;11.918;2023-05-20T14:20:27;19.30;99.90
43049;DHT22;28673;44.412;11.918;2023-05-20T14:25:26;19.40;99.90
43049;DHT22;28673;44.412;11.918;2023-05-20T14:27:52;19.50;99.90
43049;DHT22;28673;44.412;11.918;2023-05-20T14:30:19;19.60;99.90
43049;DHT22;28673;44.412;11.918;2023-05-20T14:32:44;19.70;99.90
43049;DHT22;28673;44.412;11.918;2023-05-20T14:35:10;19.80;99.90
43049;DHT22;28673;44.412;11.918;2023-05-20T14:37:36;19.80;99.90
43049;DHT22;28673;44.412;11.918;2023-05-20T14:40:04;19.90;99.90
43049;DHT22;28673;44.412;11.918;2023-05-20T14:42:32;19.90;99.90
43049;DHT22;28673;44.412;11.918;2023-05-20T14:44:58;19.80;99.90
43049;DHT22;28673;44.412;11.918;2023-05-20T14:47:24;19.80;99.90
43049;DHT22;28673;44.412;11.918;2023-05-20T14:49:51;19.70;99.90
43049;DHT22;28673;44.412;11.918;2023-05-20T14:52:17;19.70;99.90
43049;DHT22;28673;44.412;11.918;2023-05-20T14:54:43;19.60;99.90
43049;DHT22;28673;44.412;11.918;2023-05-20T14:57:09;19.60;99.90
43049;DHT22;28673;44.412;11.918;2023-05-20T14:59:36;19.50;99.90
43049;DHT22;28673;44.412;11.918;2023-05-20T15:02:02;19.50;99.90
43049;DHT22;28673;44.412;11.918;2023-05-20T15:04:30;19.40;99.90
43049;DHT22;28673;44.412;11.918;2023-05-20T15:06:56;19.40;99.90
43049;DHT22;28673;44.412;11.918;2023-05-20T15:09:22;19.30;99.90
43049;DHT22;28673;44.412;11.918;2023-05-20T15:11:49;19.20;99.90
43049;DHT22;28673;44.412;11.918;2023-05-20T15:14:15;19.20;99.90
43049;DHT22;28673;44.412;11.918;2023-05-20T15:16:41;19.10;99.90
43049;DHT22;28673;44.412;11.918;2023-05-20T15:19:09;19.10;99.90
43049;DHT22;28673;44.412;11.918;2023-05-20T15:21:35;19.10;99.90
43049;DHT22;28673;44.412;11.918;2023-05-20T15:24:01;19.10;99.90
43049;DHT22;28673;44.412;11.918;2023-05-20T15:26:30;19.10;99.90
43049;DHT22;28673;44.412;11.918;2023-05-20T15:28:57;19.10;99.90
43049;DHT22;28673;44.412;11.918;2023-05-20T15:31:22;19.10;99.90
43049;DHT22;28673;44.412;11.918;2023-05-20T15:33:49;19.00;99.90